createdAt,value
2023-01-11T00:03:30.790Z,0.33
2023-01-11T00:08:24.389Z,0.40
2023-01-11T00:13:16.481Z,0.60
2023-01-11T00:18:08.508Z,0.50
2023-01-11T00:23:00.264Z,0.40
2023-01-11T00:27:52.018Z,0.40
2023-01-11T00:32:43.994Z,0.40
2023-01-11T00:37:35.684Z,0.30
2023-01-11T00:42:45.978Z,0.47
2023-01-11T00:47:56.324Z,0.40
2023-01-11T00:52:47.873Z,0.20
2023-01-11T00:57:39.474Z,0.40
2023-01-11T01:02:32.435Z,0.30
2023-01-11T01:07:24.046Z,0.30
2023-01-11T01:12:35.641Z,0.20
2023-01-11T01:17:27.310Z,0.30
2023-01-11T01:22:19.108Z,0.30
2023-01-11T01:27:15.721Z,0.30
2023-01-11T01:32:07.390Z,0.20
2023-01-11T01:36:59.068Z,0.30
2023-01-11T01:41:50.863Z,0.37
2023-01-11T01:46:42.474Z,0.30
2023-01-11T01:51:54.900Z,0.30
2023-01-11T01:56:51.533Z,0.20
2023-01-11T02:01:49.091Z,0.40
2023-01-11T02:06:41.633Z,0.60
2023-01-11T02:11:34.543Z,0.30
2023-01-11T02:16:26.450Z,0.30
2023-01-11T02:21:54.414Z,0.40
2023-01-11T02:27:04.196Z,0.43
2023-01-11T02:32:06.450Z,0.43
2023-01-11T02:37:07.390Z,0.30
2023-01-11T02:42:28.628Z,0.30
2023-01-11T02:47:29.502Z,0.30
2023-01-11T02:52:31.322Z,0.40
2023-01-11T02:57:26.734Z,0.47
2023-01-11T03:02:18.601Z,0.47
2023-01-11T03:07:37.583Z,0.43
2023-01-11T03:12:51.364Z,0.67
2023-01-11T03:18:20.864Z,0.40
2023-01-11T03:23:34.660Z,0.30
2023-01-11T03:28:29.209Z,0.40
2023-01-11T03:33:32.418Z,0.47
2023-01-11T03:38:33.323Z,0.60
2023-01-11T03:43:26.680Z,0.70
2023-01-11T03:48:23.759Z,0.30
2023-01-11T03:53:19.522Z,0.40
2023-01-11T03:58:11.566Z,0.40
2023-01-11T04:03:03.544Z,0.20
2023-01-11T04:07:55.470Z,0.30
2023-01-11T04:12:48.280Z,0.50
2023-01-11T04:17:39.950Z,0.30
2023-01-11T04:22:31.603Z,0.20
2023-01-11T04:27:23.267Z,0.27
2023-01-11T04:32:14.839Z,0.20
2023-01-11T04:37:06.549Z,0.20
2023-01-11T04:42:16.853Z,0.20
2023-01-11T04:47:08.512Z,0.17
2023-01-11T04:52:00.868Z,0.10
2023-01-11T04:56:52.439Z,0.20
2023-01-11T05:01:44.085Z,0.20
2023-01-11T05:06:35.713Z,0.50
2023-01-11T05:11:27.413Z,0.10
2023-01-11T05:16:21.515Z,0.40
2023-01-11T05:21:16.119Z,0.30
2023-01-11T05:26:10.609Z,0.20
2023-01-11T05:31:02.321Z,0.40
2023-01-11T05:36:02.413Z,0.20
2023-01-11T05:40:58.613Z,0.40
2023-01-11T05:45:50.293Z,0.40
2023-01-11T05:50:41.925Z,0.30
2023-01-11T05:55:33.698Z,0.30
2023-01-11T06:00:25.350Z,0.33
2023-01-11T06:05:16.997Z,0.60
2023-01-11T06:10:09.993Z,0.50
2023-01-11T06:15:01.572Z,0.70
2023-01-11T06:19:53.104Z,0.40
2023-01-11T06:24:44.735Z,0.60
2023-01-11T06:29:36.346Z,0.40
2023-01-11T06:34:27.887Z,0.70
2023-01-11T06:39:19.551Z,1.00
2023-01-11T06:44:11.294Z,0.90
2023-01-11T06:49:03.246Z,1.17
2023-01-11T06:53:54.849Z,0.60
2023-01-11T06:58:47.948Z,1.30
2023-01-11T07:03:41.612Z,1.23
2023-01-11T07:08:33.240Z,1.20
2023-01-11T07:13:24.795Z,1.10
2023-01-11T07:18:17.638Z,1.40
2023-01-11T07:23:10.746Z,1.50
2023-01-11T07:28:05.391Z,1.33
2023-01-11T07:32:58.244Z,0.93
2023-01-11T07:37:49.967Z,1.10
2023-01-11T07:43:05.423Z,1.00
2023-01-11T07:47:56.978Z,0.50
2023-01-11T07:52:49.201Z,0.90
2023-01-11T07:57:40.803Z,0.53
2023-01-11T08:02:32.679Z,0.80
2023-01-11T08:07:24.238Z,0.70
2023-01-11T08:12:34.490Z,0.70
2023-01-11T08:17:26.170Z,0.87
2023-01-11T08:22:18.152Z,0.60
2023-01-11T08:27:09.977Z,0.80
2023-01-11T08:32:01.557Z,0.60
2023-01-11T08:36:53.320Z,0.90
2023-01-11T08:41:44.923Z,0.80
2023-01-11T08:46:38.053Z,1.07
2023-01-11T08:51:29.718Z,1.10
2023-01-11T08:56:21.567Z,1.13
2023-01-11T09:01:13.301Z,0.70
2023-01-11T09:06:05.167Z,0.70
2023-01-11T09:10:59.744Z,0.80
2023-01-11T09:15:55.556Z,1.40
2023-01-11T09:20:47.108Z,0.90
2023-01-11T09:25:38.708Z,1.10
2023-01-11T09:30:31.245Z,1.10
2023-01-11T09:35:22.978Z,2.33
2023-01-11T09:40:19.646Z,1.40
2023-01-11T09:45:18.637Z,2.47
2023-01-11T09:50:15.002Z,2.10
2023-01-11T09:55:20.025Z,2.20
2023-01-11T10:00:27.717Z,1.80
2023-01-11T10:05:21.788Z,2.07
2023-01-11T10:18:28.736Z,2.50
2023-01-11T10:21:40.941Z,3.07
2023-01-11T10:26:39.949Z,2.90
2023-01-11T10:31:37.668Z,3.07
2023-01-11T10:37:07.072Z,2.43
2023-01-11T10:42:24.038Z,2.53
2023-01-11T10:47:19.438Z,2.87
2023-01-11T10:52:26.326Z,3.00
2023-01-11T10:57:38.672Z,3.30
2023-01-11T11:03:19.457Z,2.87
2023-01-11T11:08:34.817Z,3.03
2023-01-11T11:13:39.251Z,4.33
2023-01-11T11:18:30.926Z,3.77
2023-01-11T11:23:24.686Z,3.10
2023-01-11T11:28:22.348Z,3.10
2023-01-11T11:33:22.230Z,2.83
2023-01-11T11:38:30.067Z,3.73
2023-01-11T11:43:23.902Z,3.43
2023-01-11T11:48:15.480Z,3.30
2023-01-11T11:53:07.324Z,3.67
2023-01-11T11:58:05.178Z,3.23
2023-01-11T12:03:05.765Z,3.37
2023-01-11T12:07:57.844Z,3.00
2023-01-11T12:12:55.836Z,2.90
2023-01-11T12:17:48.357Z,2.93
2023-01-11T12:22:39.984Z,2.40
2023-01-11T12:27:53.240Z,3.17
2023-01-11T12:33:12.430Z,2.30
2023-01-11T12:38:17.290Z,2.53
2023-01-11T12:43:30.798Z,3.33
2023-01-11T12:48:46.320Z,2.60
2023-01-11T12:53:51.844Z,3.00
2023-01-11T12:59:19.960Z,2.53
2023-01-11T13:04:33.370Z,4.03
2023-01-11T13:09:38.974Z,4.43
2023-01-11T13:15:05.767Z,2.60
2023-01-11T13:20:34.205Z,2.70
2023-01-11T13:25:40.239Z,2.63
2023-01-11T13:30:32.019Z,2.53
2023-01-11T13:35:35.800Z,2.77
2023-01-11T13:40:32.731Z,3.03
2023-01-11T13:45:46.086Z,3.30
2023-01-11T13:50:45.540Z,3.10
2023-01-11T13:55:43.820Z,2.37
2023-01-11T14:00:42.995Z,2.93
2023-01-11T14:05:44.730Z,3.03
2023-01-11T14:10:43.820Z,3.10
2023-01-11T14:15:53.317Z,2.63
2023-01-11T14:21:09.190Z,2.10
2023-01-11T14:26:09.714Z,2.80
2023-01-11T14:31:29.469Z,2.67
2023-01-11T14:36:33.492Z,3.07
2023-01-11T14:41:37.747Z,2.90
2023-01-11T14:47:00.322Z,2.57
2023-01-11T14:51:51.934Z,2.80
2023-01-11T14:56:43.561Z,2.77
2023-01-11T15:02:03.670Z,2.63
2023-01-11T15:06:56.234Z,2.50
2023-01-11T15:11:48.102Z,2.30
2023-01-11T15:16:58.316Z,3.30
2023-01-11T15:21:53.316Z,3.67
2023-01-11T15:26:49.597Z,3.20
2023-01-11T15:31:53.609Z,3.07
2023-01-11T15:37:06.623Z,2.57
2023-01-11T15:42:16.774Z,3.30
2023-01-11T15:47:53.869Z,2.97
2023-01-11T15:53:06.965Z,3.30
2023-01-11T15:58:29.403Z,3.43
2023-01-11T16:03:47.575Z,3.20
2023-01-11T16:08:53.079Z,3.30
2023-01-11T16:13:54.220Z,3.17
2023-01-11T16:19:02.021Z,2.50
2023-01-11T16:23:54.110Z,2.10
2023-01-11T16:28:49.096Z,2.73
2023-01-11T16:33:40.737Z,2.40
2023-01-11T16:38:43.422Z,2.07
2023-01-11T16:43:38.325Z,2.37
2023-01-11T16:48:30.283Z,2.67
2023-01-11T16:53:22.296Z,2.87
2023-01-11T16:58:28.408Z,3.07
2023-01-11T17:03:23.932Z,2.10
2023-01-11T17:08:29.436Z,2.40
2023-01-11T17:13:54.600Z,3.00
2023-01-11T17:18:46.212Z,2.83
2023-01-11T17:23:39.348Z,1.87
2023-01-11T17:28:31.017Z,2.33
2023-01-11T17:33:33.764Z,1.90
2023-01-11T17:38:27.515Z,1.70
2023-01-11T17:43:45.972Z,1.80
2023-01-11T17:48:37.644Z,1.50
2023-01-11T17:53:36.007Z,1.57
2023-01-11T17:58:29.598Z,2.00
2023-01-11T18:03:21.196Z,1.77
2023-01-11T18:08:21.223Z,2.13
2023-01-11T18:13:29.119Z,1.53
2023-01-11T18:18:48.598Z,2.10
2023-01-11T18:23:40.381Z,1.63
2023-01-11T18:28:36.952Z,2.40
2023-01-11T18:33:32.445Z,2.07
2023-01-11T18:38:33.182Z,2.07
2023-01-11T18:43:28.070Z,2.50
2023-01-11T18:48:19.863Z,1.67
2023-01-11T18:53:12.927Z,2.47
2023-01-11T18:58:04.533Z,2.63
2023-01-11T19:02:56.320Z,2.10
2023-01-11T19:07:49.243Z,2.00
2023-01-11T19:12:41.239Z,1.97
2023-01-11T19:17:33.179Z,2.00
2023-01-11T19:22:26.694Z,2.53
2023-01-11T19:27:19.068Z,3.07
2023-01-11T19:32:10.808Z,2.37
2023-01-11T19:37:02.644Z,2.67
2023-01-11T19:41:54.459Z,2.40
2023-01-11T19:46:47.074Z,2.13
2023-01-11T19:51:40.580Z,2.10
2023-01-11T19:56:32.198Z,1.90
2023-01-11T20:01:23.836Z,1.73
2023-01-11T20:06:15.554Z,1.90
2023-01-11T20:11:09.733Z,2.40
2023-01-11T20:16:22.811Z,2.10
2023-01-11T20:21:14.427Z,1.93
2023-01-11T20:26:14.738Z,2.30
2023-01-11T20:31:07.032Z,2.30
2023-01-11T20:35:58.639Z,1.93
2023-01-11T20:40:50.212Z,2.13
2023-01-11T20:45:41.825Z,2.50
2023-01-11T20:50:35.319Z,2.13
2023-01-11T20:55:27.976Z,2.10
2023-01-11T21:00:20.002Z,1.83
2023-01-11T21:05:11.671Z,1.83
2023-01-11T21:10:03.398Z,1.97
2023-01-11T21:14:54.897Z,1.73
2023-01-11T21:19:46.505Z,1.93
2023-01-11T21:24:40.886Z,1.90
2023-01-11T21:29:32.758Z,2.00
2023-01-11T21:34:24.358Z,1.93
2023-01-11T21:39:16.460Z,2.07
2023-01-11T21:44:08.261Z,2.13
2023-01-11T21:49:00.194Z,2.57
2023-01-11T21:53:51.939Z,1.87
2023-01-11T21:58:45.226Z,2.00
2023-01-11T22:03:37.236Z,2.17
2023-01-11T22:08:28.959Z,2.23
2023-01-11T22:13:20.544Z,1.80
2023-01-11T22:18:12.428Z,2.20
2023-01-11T22:23:04.002Z,1.77
2023-01-11T22:27:55.545Z,2.20
2023-01-11T22:32:47.860Z,2.00
2023-01-11T22:37:39.441Z,2.10
2023-01-11T22:42:31.239Z,1.80
2023-01-11T22:47:22.782Z,2.23
2023-01-11T22:52:14.364Z,2.20
2023-01-11T22:57:05.904Z,1.80
2023-01-11T23:01:57.465Z,1.90
2023-01-11T23:06:49.203Z,1.90
2023-01-11T23:11:59.177Z,1.50
2023-01-11T23:16:50.776Z,1.90
2023-01-11T23:21:45.189Z,1.70
2023-01-11T23:26:37.233Z,1.90
2023-01-11T23:31:30.817Z,1.80
2023-01-11T23:36:24.055Z,1.87
2023-01-11T23:41:36.938Z,1.87
2023-01-11T23:46:46.918Z,1.60
2023-01-11T23:51:38.502Z,1.67
2023-01-11T23:56:32.206Z,1.80
